sensor_id;sensor_type;location;lat;lon;timestamp;temperature;humidity
55026;DHT22;40925;45.666;18.994;2023-05-09T07:48:23;410.20;2252.80
55026;DHT22;40925;45.666;18.994;2023-05-09T08:27:25;435.90;2048.00
55026;DHT22;40925;45.666;18.994;2023-05-09T08:29:51;435.50;2048.00
55026;DHT22;40925;45.666;18.994;2023-05-09T08:32:16;435.90;2048.00
55026;DHT22;40925;45.666;18.994;2023-05-09T08:34:44;461.00;2048.00
55026;DHT22;40925;45.666;18.994;2023-05-09T08:37:10;436.00;1971.20
55026;DHT22;40925;45.666;18.994;2023-05-09T08:39:35;435.90;2022.40
55026;DHT22;40925;45.666;18.994;2023-05-09T08:42:02;460.80;2022.40
55026;DHT22;40925;45.666;18.994;2023-05-09T08:44:29;436.10;1945.60
55026;DHT22;40925;45.666;18.994;2023-05-09T08:46:58;435.70;1920.00
55026;DHT22;40925;45.666;18.994;2023-05-09T08:49:25;435.60;1971.20
55026;DHT22;40925;45.666;18.994;2023-05-09T08:51:51;435.80;1971.20
55026;DHT22;40925;45.666;18.994;2023-05-09T08:54:18;436.00;1996.80
55026;DHT22;40925;45.666;18.994;2023-05-09T08:56:43;460.80;1971.20
55026;DHT22;40925;45.666;18.994;2023-05-09T08:59:09;461.50;1945.60
55026;DHT22;40925;45.666;18.994;2023-05-09T09:01:35;461.50;1920.00
55026;DHT22;40925;45.666;18.994;2023-05-09T09:04:06;486.40;1868.80
55026;DHT22;40925;45.666;18.994;2023-05-09T09:06:35;486.50;1868.80
55026;DHT22;40925;45.666;18.994;2023-05-09T09:09:02;486.40;1843.20
55026;DHT22;40925;45.666;18.994;2023-05-09T09:11:39;461.70;1868.80
55026;DHT22;40925;45.666;18.994;2023-05-09T09:14:22;486.50;1894.40
55026;DHT22;40925;45.666;18.994;2023-05-09T09:16:50;486.90;1843.20
55026;DHT22;40925;45.666;18.994;2023-05-09T09:19:17;486.90;1817.60
55026;DHT22;40925;45.666;18.994;2023-05-09T09:21:45;487.20;1792.00
55026;DHT22;40925;45.666;18.994;2023-05-09T09:24:17;487.30;1792.00
55026;DHT22;40925;45.666;18.994;2023-05-09T09:26:48;487.20;1715.20
55026;DHT22;40925;45.666;18.994;2023-05-09T09:31:44;486.80;1792.00
55026;DHT22;40925;45.666;18.994;2023-05-09T09:34:11;461.70;1817.60
55026;DHT22;40925;45.666;18.994;2023-05-09T09:36:39;461.60;1817.60
55026;DHT22;40925;45.666;18.994;2023-05-09T09:39:05;461.30;1868.80
55026;DHT22;40925;45.666;18.994;2023-05-09T09:41:36;460.80;1894.40
55026;DHT22;40925;45.666;18.994;2023-05-09T09:44:13;436.00;1894.40
55026;DHT22;40925;45.666;18.994;2023-05-09T09:46:48;461.20;1868.80
55026;DHT22;40925;45.666;18.994;2023-05-09T09:49:16;461.60;1868.80
55026;DHT22;40925;45.666;18.994;2023-05-09T09:51:42;461.50;1868.80
55026;DHT22;40925;45.666;18.994;2023-05-09T09:54:13;486.60;1792.00
55026;DHT22;40925;45.666;18.994;2023-05-09T09:56:43;487.10;1792.00
55026;DHT22;40925;45.666;18.994;2023-05-09T10:06:54;563.20;1638.40
55026;DHT22;40925;45.666;18.994;2023-05-09T10:09:21;563.20;1689.60
55026;DHT22;40925;45.666;18.994;2023-05-09T10:11:48;563.40;1664.00
55026;DHT22;40925;45.666;18.994;2023-05-09T10:14:23;563.30;1638.40
55026;DHT22;40925;45.666;18.994;2023-05-09T10:16:55;563.20;1612.80
55026;DHT22;40925;45.666;18.994;2023-05-09T10:19:22;563.20;1587.20
55026;DHT22;40925;45.666;18.994;2023-05-09T10:21:54;538.50;1587.20
55026;DHT22;40925;45.666;18.994;2023-05-09T10:24:33;537.80;1561.60
55026;DHT22;40925;45.666;18.994;2023-05-09T10:27:05;538.00;1612.80
55026;DHT22;40925;45.666;18.994;2023-05-09T10:29:43;538.20;1612.80
55026;DHT22;40925;45.666;18.994;2023-05-09T10:32:20;538.50;1612.80
55026;DHT22;40925;45.666;18.994;2023-05-09T10:34:51;538.40;1561.60
55026;DHT22;40925;45.666;18.994;2023-05-09T10:37:19;538.40;1536.00
55026;DHT22;40925;45.666;18.994;2023-05-09T10:39:46;563.20;1561.60
55026;DHT22;40925;45.666;18.994;2023-05-09T10:42:17;563.60;1510.40
55026;DHT22;40925;45.666;18.994;2023-05-09T10:52:04;588.80;1510.40
55026;DHT22;40925;45.666;18.994;2023-05-09T10:54:30;564.00;1510.40
55026;DHT22;40925;45.666;18.994;2023-05-09T10:56:59;564.00;1459.20
55026;DHT22;40925;45.666;18.994;2023-05-09T11:01:57;563.30;1484.80
55026;DHT22;40925;45.666;18.994;2023-05-09T11:04:27;563.20;1484.80
55026;DHT22;40925;45.666;18.994;2023-05-09T11:09:33;564.00;1484.80
55026;DHT22;40925;45.666;18.994;2023-05-09T11:12:12;564.00;1459.20
55026;DHT22;40925;45.666;18.994;2023-05-09T11:17:28;563.30;1484.80
55026;DHT22;40925;45.666;18.994;2023-05-09T11:19:57;563.20;1459.20
55026;DHT22;40925;45.666;18.994;2023-05-09T11:22:43;538.40;1484.80
55026;DHT22;40925;45.666;18.994;2023-05-09T11:25:13;563.20;1484.80
55026;DHT22;40925;45.666;18.994;2023-05-09T11:27:43;537.90;1561.60
55026;DHT22;40925;45.666;18.994;2023-05-09T11:30:11;538.20;1510.40
55026;DHT22;40925;45.666;18.994;2023-05-09T11:32:51;563.20;1536.00
55026;DHT22;40925;45.666;18.994;2023-05-09T11:35:19;538.50;1433.60
55026;DHT22;40925;45.666;18.994;2023-05-09T11:37:50;512.90;1484.80
55026;DHT22;40925;45.666;18.994;2023-05-09T11:40:19;512.90;1484.80
55026;DHT22;40925;45.666;18.994;2023-05-09T11:42:47;512.70;1484.80
55026;DHT22;40925;45.666;18.994;2023-05-09T11:45:15;537.90;1484.80
55026;DHT22;40925;45.666;18.994;2023-05-09T11:47:41;538.40;1484.80
55026;DHT22;40925;45.666;18.994;2023-05-09T11:50:07;538.50;1459.20
55026;DHT22;40925;45.666;18.994;2023-05-09T11:52:35;538.40;1459.20
55026;DHT22;40925;45.666;18.994;2023-05-09T11:55:01;512.80;1510.40
55026;DHT22;40925;45.666;18.994;2023-05-09T11:57:28;537.70;1536.00
55026;DHT22;40925;45.666;18.994;2023-05-09T11:59:54;537.70;1510.40
55026;DHT22;40925;45.666;18.994;2023-05-09T12:02:20;537.70;1536.00
55026;DHT22;40925;45.666;18.994;2023-05-09T12:04:47;537.60;1536.00
55026;DHT22;40925;45.666;18.994;2023-05-09T12:07:13;512.90;1510.40
55026;DHT22;40925;45.666;18.994;2023-05-09T12:09:41;512.80;1510.40
55026;DHT22;40925;45.666;18.994;2023-05-09T12:12:12;512.60;1561.60
55026;DHT22;40925;45.666;18.994;2023-05-09T12:14:38;512.30;1612.80
55026;DHT22;40925;45.666;18.994;2023-05-09T12:17:08;512.50;1638.40
55026;DHT22;40925;45.666;18.994;2023-05-09T12:19:34;512.70;1561.60
55026;DHT22;40925;45.666;18.994;2023-05-09T12:22:03;512.70;1561.60
55026;DHT22;40925;45.666;18.994;2023-05-09T12:24:30;512.20;1587.20
55026;DHT22;40925;45.666;18.994;2023-05-09T12:26:57;512.00;1612.80
55026;DHT22;40925;45.666;18.994;2023-05-09T12:29:24;487.20;1638.40
55026;DHT22;40925;45.666;18.994;2023-05-09T12:31:51;512.00;1638.40
55026;DHT22;40925;45.666;18.994;2023-05-09T12:34:18;537.60;1638.40
55026;DHT22;40925;45.666;18.994;2023-05-09T12:36:45;538.10;1536.00
55026;DHT22;40925;45.666;18.994;2023-05-09T12:41:49;563.50;1536.00
55026;DHT22;40925;45.666;18.994;2023-05-09T12:44:23;563.20;1510.40
55026;DHT22;40925;45.666;18.994;2023-05-09T12:47:01;563.70;1484.80
55026;DHT22;40925;45.666;18.994;2023-05-09T12:49:28;538.40;1484.80
55026;DHT22;40925;45.666;18.994;2023-05-09T12:51:56;538.50;1536.00
55026;DHT22;40925;45.666;18.994;2023-05-09T12:54:27;537.90;1510.40
55026;DHT22;40925;45.666;18.994;2023-05-09T12:56:56;538.10;1510.40
55026;DHT22;40925;45.666;18.994;2023-05-09T12:59:23;563.40;1484.80
55026;DHT22;40925;45.666;18.994;2023-05-09T13:01:56;563.30;1766.40
55026;DHT22;40925;45.666;18.994;2023-05-09T13:04:23;538.30;1484.80
55026;DHT22;40925;45.666;18.994;2023-05-09T13:06:54;537.60;1510.40
55026;DHT22;40925;45.666;18.994;2023-05-09T13:09:36;538.10;1536.00
55026;DHT22;40925;45.666;18.994;2023-05-09T13:12:18;512.70;1587.20
55026;DHT22;40925;45.666;18.994;2023-05-09T13:14:45;487.20;1638.40
55026;DHT22;40925;45.666;18.994;2023-05-09T13:26:56;487.20;1612.80
55026;DHT22;40925;45.666;18.994;2023-05-09T13:29:22;487.00;1612.80
55026;DHT22;40925;45.666;18.994;2023-05-09T13:31:48;487.30;1612.80
55026;DHT22;40925;45.666;18.994;2023-05-09T13:34:13;487.30;1996.80
55026;DHT22;40925;45.666;18.994;2023-05-09T13:36:39;512.00;1664.00
55026;DHT22;40925;45.666;18.994;2023-05-09T13:39:05;487.30;1664.00
55026;DHT22;40925;45.666;18.994;2023-05-09T13:43:58;487.30;2022.40
55026;DHT22;40925;45.666;18.994;2023-05-09T13:46:24;487.20;1612.80
55026;DHT22;40925;45.666;18.994;2023-05-09T13:48:49;487.20;1638.40
55026;DHT22;40925;45.666;18.994;2023-05-09T13:51:15;487.10;1638.40
55026;DHT22;40925;45.666;18.994;2023-05-09T13:53:56;487.00;1612.80
55026;DHT22;40925;45.666;18.994;2023-05-09T13:56:21;487.00;1587.20
55026;DHT22;40925;45.666;18.994;2023-05-09T13:58:47;487.00;1612.80
55026;DHT22;40925;45.666;18.994;2023-05-09T14:01:13;487.00;1638.40
55026;DHT22;40925;45.666;18.994;2023-05-09T14:03:39;486.80;1638.40
55026;DHT22;40925;45.666;18.994;2023-05-09T14:06:05;487.10;1561.60
55026;DHT22;40925;45.666;18.994;2023-05-09T14:08:30;512.00;1612.80
55026;DHT22;40925;45.666;18.994;2023-05-09T14:10:56;512.20;1561.60
55026;DHT22;40925;45.666;18.994;2023-05-09T14:13:22;512.10;1612.80
55026;DHT22;40925;45.666;18.994;2023-05-09T14:15:48;487.30;1561.60
55026;DHT22;40925;45.666;18.994;2023-05-09T14:18:13;512.50;1561.60
55026;DHT22;40925;45.666;18.994;2023-05-09T14:20:39;537.70;1510.40
55026;DHT22;40925;45.666;18.994;2023-05-09T14:23:06;512.60;1510.40
55026;DHT22;40925;45.666;18.994;2023-05-09T14:25:32;487.30;1561.60
55026;DHT22;40925;45.666;18.994;2023-05-09T14:30:25;487.20;1510.40
55026;DHT22;40925;45.666;18.994;2023-05-09T14:32:51;487.00;1510.40
55026;DHT22;40925;45.666;18.994;2023-05-09T14:35:17;487.00;1561.60
55026;DHT22;40925;45.666;18.994;2023-05-09T14:37:43;486.80;1612.80
55026;DHT22;40925;45.666;18.994;2023-05-09T14:40:09;486.70;1612.80
55026;DHT22;40925;45.666;18.994;2023-05-09T14:42:34;486.70;1587.20
55026;DHT22;40925;45.666;18.994;2023-05-09T14:45:01;486.70;1587.20
55026;DHT22;40925;45.666;18.994;2023-05-09T14:47:26;486.70;1638.40
55026;DHT22;40925;45.666;18.994;2023-05-09T14:49:52;486.40;1689.60
55026;DHT22;40925;45.666;18.994;2023-05-09T14:52:18;486.40;1587.20
55026;DHT22;40925;45.666;18.994;2023-05-09T14:54:44;486.80;1612.80
55026;DHT22;40925;45.666;18.994;2023-05-09T14:57:09;486.80;1587.20
55026;DHT22;40925;45.666;18.994;2023-05-09T14:59:36;487.00;1587.20
55026;DHT22;40925;45.666;18.994;2023-05-09T15:02:01;487.20;1510.40
55026;DHT22;40925;45.666;18.994;2023-05-09T15:04:27;487.00;1561.60
55026;DHT22;40925;45.666;18.994;2023-05-09T15:06:55;486.90;1561.60
55026;DHT22;40925;45.666;18.994;2023-05-09T15:09:21;487.00;1587.20
55026;DHT22;40925;45.666;18.994;2023-05-09T15:11:47;487.00;1587.20
55026;DHT22;40925;45.666;18.994;2023-05-09T15:14:13;487.00;1561.60
55026;DHT22;40925;45.666;18.994;2023-05-09T15:16:39;487.00;1561.60
55026;DHT22;40925;45.666;18.994;2023-05-09T15:19:07;487.20;1536.00
55026;DHT22;40925;45.666;18.994;2023-05-09T15:21:33;487.20;1612.80
55026;DHT22;40925;45.666;18.994;2023-05-09T15:23:59;512.00;1536.00
55026;DHT22;40925;45.666;18.994;2023-05-09T15:28:51;487.20;1536.00
55026;DHT22;40925;45.666;18.994;2023-05-09T15:31:16;487.00;1587.20
55026;DHT22;40925;45.666;18.994;2023-05-09T15:33:46;486.90;1561.60
55026;DHT22;40925;45.666;18.994;2023-05-09T15:36:12;486.80;1561.60
55026;DHT22;40925;45.666;18.994;2023-05-09T15:38:38;486.70;1561.60
55026;DHT22;40925;45.666;18.994;2023-05-09T15:41:04;486.90;1484.80
55026;DHT22;40925;45.666;18.994;2023-05-09T15:43:29;486.90;1459.20
55026;DHT22;40925;45.666;18.994;2023-05-09T15:45:55;486.90;1459.20
55026;DHT22;40925;45.666;18.994;2023-05-09T15:48:21;487.00;1459.20
55026;DHT22;40925;45.666;18.994;2023-05-09T15:50:48;487.00;1459.20
55026;DHT22;40925;45.666;18.994;2023-05-09T15:53:14;487.20;1459.20
55026;DHT22;40925;45.666;18.994;2023-05-09T15:55:40;486.90;1433.60
55026;DHT22;40925;45.666;18.994;2023-05-09T15:58:07;486.60;1433.60
55026;DHT22;40925;45.666;18.994;2023-05-09T16:00:35;486.50;1484.80
55026;DHT22;40925;45.666;18.994;2023-05-09T16:03:02;486.70;1536.00
55026;DHT22;40925;45.666;18.994;2023-05-09T16:05:28;486.60;1510.40
55026;DHT22;40925;45.666;18.994;2023-05-09T16:07:53;486.60;1510.40
55026;DHT22;40925;45.666;18.994;2023-05-09T16:10:19;486.40;1510.40
55026;DHT22;40925;45.666;18.994;2023-05-09T16:15:11;461.70;1536.00
55026;DHT22;40925;45.666;18.994;2023-05-09T16:17:37;461.70;1536.00
55026;DHT22;40925;45.666;18.994;2023-05-09T16:20:03;461.70;1587.20
55026;DHT22;40925;45.666;18.994;2023-05-09T16:22:28;461.60;1587.20
55026;DHT22;40925;45.666;18.994;2023-05-09T16:24:54;461.70;1587.20
55026;DHT22;40925;45.666;18.994;2023-05-09T16:27:20;461.70;1587.20
55026;DHT22;40925;45.666;18.994;2023-05-09T16:29:46;461.60;1561.60
55026;DHT22;40925;45.666;18.994;2023-05-09T16:32:11;461.50;1587.20
55026;DHT22;40925;45.666;18.994;2023-05-09T16:34:37;461.50;1587.20
55026;DHT22;40925;45.666;18.994;2023-05-09T16:37:03;461.60;1612.80
55026;DHT22;40925;45.666;18.994;2023-05-09T16:39:29;461.40;1587.20
55026;DHT22;40925;45.666;18.994;2023-05-09T16:41:55;461.30;1612.80
55026;DHT22;40925;45.666;18.994;2023-05-09T16:44:22;461.10;1638.40
55026;DHT22;40925;45.666;18.994;2023-05-09T16:46:48;461.10;1664.00
55026;DHT22;40925;45.666;18.994;2023-05-09T16:49:14;461.20;1715.20
55026;DHT22;40925;45.666;18.994;2023-05-09T16:51:40;461.30;1689.60
55026;DHT22;40925;45.666;18.994;2023-05-09T16:54:06;461.30;1689.60
55026;DHT22;40925;45.666;18.994;2023-05-09T16:56:33;461.40;1689.60
55026;DHT22;40925;45.666;18.994;2023-05-09T16:58:58;461.30;1689.60
55026;DHT22;40925;45.666;18.994;2023-05-09T17:01:24;461.30;1740.80
55026;DHT22;40925;45.666;18.994;2023-05-09T17:03:50;461.40;1766.40
55026;DHT22;40925;45.666;18.994;2023-05-09T17:06:15;461.30;1792.00
55026;DHT22;40925;45.666;18.994;2023-05-09T17:08:41;461.40;1817.60
55026;DHT22;40925;45.666;18.994;2023-05-09T17:11:08;461.30;1740.80
55026;DHT22;40925;45.666;18.994;2023-05-09T17:13:33;461.30;1715.20
55026;DHT22;40925;45.666;18.994;2023-05-09T17:15:59;461.10;1715.20
55026;DHT22;40925;45.666;18.994;2023-05-09T17:18:25;460.90;1715.20
55026;DHT22;40925;45.666;18.994;2023-05-09T17:20:51;460.90;1715.20
55026;DHT22;40925;45.666;18.994;2023-05-09T17:23:16;460.80;1715.20
55026;DHT22;40925;45.666;18.994;2023-05-09T17:29:05;460.80;1715.20
55026;DHT22;40925;45.666;18.994;2023-05-09T17:31:30;460.80;1740.80
55026;DHT22;40925;45.666;18.994;2023-05-09T17:33:56;460.90;1715.20
55026;DHT22;40925;45.666;18.994;2023-05-09T17:36:22;460.90;1766.40
55026;DHT22;40925;45.666;18.994;2023-05-09T17:38:48;460.90;1740.80
55026;DHT22;40925;45.666;18.994;2023-05-09T17:41:14;460.90;1740.80
55026;DHT22;40925;45.666;18.994;2023-05-09T17:43:39;460.90;1766.40
55026;DHT22;40925;45.666;18.994;2023-05-09T17:46:05;460.80;1766.40
55026;DHT22;40925;45.666;18.994;2023-05-09T17:48:33;436.10;1766.40
55026;DHT22;40925;45.666;18.994;2023-05-09T17:50:58;436.10;1766.40
55026;DHT22;40925;45.666;18.994;2023-05-09T17:53:24;460.80;1792.00
55026;DHT22;40925;45.666;18.994;2023-05-09T17:55:50;460.80;1792.00
55026;DHT22;40925;45.666;18.994;2023-05-09T17:58:15;460.80;1792.00
55026;DHT22;40925;45.666;18.994;2023-05-09T18:00:41;460.80;1792.00
55026;DHT22;40925;45.666;18.994;2023-05-09T18:03:07;460.80;1792.00
55026;DHT22;40925;45.666;18.994;2023-05-09T18:05:33;460.80;1817.60
55026;DHT22;40925;45.666;18.994;2023-05-09T18:07:59;436.10;1792.00
55026;DHT22;40925;45.666;18.994;2023-05-09T18:10:26;436.10;1817.60
55026;DHT22;40925;45.666;18.994;2023-05-09T18:12:52;436.00;1817.60
55026;DHT22;40925;45.666;18.994;2023-05-09T18:27:31;436.10;1894.40
55026;DHT22;40925;45.666;18.994;2023-05-09T18:29:56;435.80;1920.00
55026;DHT22;40925;45.666;18.994;2023-05-09T18:32:22;435.70;1920.00
55026;DHT22;40925;45.666;18.994;2023-05-09T18:37:14;435.70;1945.60
55026;DHT22;40925;45.666;18.994;2023-05-09T18:39:41;435.40;1971.20
55026;DHT22;40925;45.666;18.994;2023-05-09T18:42:07;435.20;2048.00
55026;DHT22;40925;45.666;18.994;2023-05-09T18:44:32;410.50;2048.00
55026;DHT22;40925;45.666;18.994;2023-05-09T18:46:58;410.30;2073.60
55026;DHT22;40925;45.666;18.994;2023-05-09T18:49:24;410.20;2022.40
55026;DHT22;40925;45.666;18.994;2023-05-09T18:51:50;384.80;2201.60
55026;DHT22;40925;45.666;18.994;2023-05-09T18:54:17;384.50;2329.60
55026;DHT22;40925;45.666;18.994;2023-05-09T18:56:43;384.00;2329.60
55026;DHT22;40925;45.666;18.994;2023-05-09T19:16:18;358.40;2329.60
55026;DHT22;40925;45.666;18.994;2023-05-09T19:21:12;333.60;2329.60
55026;DHT22;40925;45.666;18.994;2023-05-09T19:23:39;333.30;2329.60
55026;DHT22;40925;45.666;18.994;2023-05-09T21:57:22;256.80;2252.80
55026;DHT22;40925;45.666;18.994;2023-05-09T21:59:48;256.40;2252.80
55026;DHT22;40925;45.666;18.994;2023-05-09T22:02:14;256.30;2252.80
55026;DHT22;40925;45.666;18.994;2023-05-09T22:22:02;256.40;2252.80
